sensor_id;sensor_type;location;lat;lon;timestamp;pressure;altitude;pressure_sealevel;temperature;humidity
11987;BME280;6053;51.382;6.768;2024-03-23T00:53:51;100823.53;;;14.31;57.37
11987;BME280;6053;51.382;6.768;2024-03-23T00:56:18;100812.53;;;15.06;57.50
11987;BME280;6053;51.382;6.768;2024-03-23T00:58:45;100816.81;;;14.41;59.20
11987;BME280;6053;51.382;6.768;2024-03-23T01:01:15;100824.06;;;14.78;56.58
11987;BME280;6053;51.382;6.768;2024-03-23T01:03:44;100820.69;;;14.92;58.25
11987;BME280;6053;51.382;6.768;2024-03-23T01:06:14;100813.69;;;15.62;56.46
11987;BME280;6053;51.382;6.768;2024-03-23T01:08:42;100809.34;;;14.08;60.56
11987;BME280;6053;51.382;6.768;2024-03-23T01:11:12;100818.16;;;12.96;55.55
11987;BME280;6053;51.382;6.768;2024-03-23T01:13:41;100818.28;;;13.81;60.42
11987;BME280;6053;51.382;6.768;2024-03-23T01:16:08;100824.47;;;15.25;57.45
11987;BME280;6053;51.382;6.768;2024-03-23T01:18:44;100816.88;;;14.59;57.29
11987;BME280;6053;51.382;6.768;2024-03-23T01:21:11;100809.19;;;15.56;56.31
11987;BME280;6053;51.382;6.768;2024-03-23T01:23:38;100788.78;;;15.59;56.19
11987;BME280;6053;51.382;6.768;2024-03-23T01:26:08;100791.41;;;15.71;55.71
11987;BME280;6053;51.382;6.768;2024-03-23T01:28:35;100796.66;;;15.60;55.79
11987;BME280;6053;51.382;6.768;2024-03-23T01:31:04;100785.38;;;15.28;56.53
11987;BME280;6053;51.382;6.768;2024-03-23T01:33:34;100784.66;;;14.79;58.22
11987;BME280;6053;51.382;6.768;2024-03-23T01:36:01;100793.88;;;15.60;56.02
11987;BME280;6053;51.382;6.768;2024-03-23T01:38:28;100783.66;;;15.75;55.13
11987;BME280;6053;51.382;6.768;2024-03-23T01:40:57;100766.94;;;15.84;54.84
11987;BME280;6053;51.382;6.768;2024-03-23T01:43:25;100764.75;;;15.88;54.67
11987;BME280;6053;51.382;6.768;2024-03-23T01:45:52;100758.91;;;15.86;54.74
11987;BME280;6053;51.382;6.768;2024-03-23T01:48:20;100768.34;;;15.89;54.64
11987;BME280;6053;51.382;6.768;2024-03-23T01:50:47;100760.63;;;15.84;54.61
11987;BME280;6053;51.382;6.768;2024-03-23T01:53:22;100750.84;;;15.88;54.41
11987;BME280;6053;51.382;6.768;2024-03-23T01:55:51;100743.13;;;15.83;54.48
11987;BME280;6053;51.382;6.768;2024-03-23T01:58:18;100747.31;;;15.79;54.63
11987;BME280;6053;51.382;6.768;2024-03-23T02:00:53;100758.75;;;15.72;54.72
11987;BME280;6053;51.382;6.768;2024-03-23T02:03:23;100751.97;;;15.73;54.80
11987;BME280;6053;51.382;6.768;2024-03-23T02:05:53;100741.44;;;15.77;54.63
11987;BME280;6053;51.382;6.768;2024-03-23T02:08:22;100734.19;;;15.52;55.16
11987;BME280;6053;51.382;6.768;2024-03-23T02:10:50;100736.66;;;15.59;55.17
11987;BME280;6053;51.382;6.768;2024-03-23T02:13:18;100741.31;;;15.71;54.74
11987;BME280;6053;51.382;6.768;2024-03-23T02:15:46;100738.50;;;15.71;54.73
11987;BME280;6053;51.382;6.768;2024-03-23T02:18:13;100725.06;;;14.80;56.64
11987;BME280;6053;51.382;6.768;2024-03-23T02:20:39;100727.56;;;14.96;57.13
11987;BME280;6053;51.382;6.768;2024-03-23T02:23:13;100737.63;;;15.47;55.36
11987;BME280;6053;51.382;6.768;2024-03-23T02:25:40;100728.47;;;15.02;55.97
11987;BME280;6053;51.382;6.768;2024-03-23T02:28:10;100729.75;;;15.37;55.66
11987;BME280;6053;51.382;6.768;2024-03-23T02:30:40;100725.56;;;15.32;55.77
11987;BME280;6053;51.382;6.768;2024-03-23T02:33:09;100724.00;;;15.49;55.29
11987;BME280;6053;51.382;6.768;2024-03-23T02:35:36;100732.69;;;15.33;55.50
11987;BME280;6053;51.382;6.768;2024-03-23T02:38:03;100731.91;;;15.33;55.58
11987;BME280;6053;51.382;6.768;2024-03-23T02:40:34;100726.16;;;15.45;55.27
11987;BME280;6053;51.382;6.768;2024-03-23T02:43:04;100723.41;;;15.36;55.42
11987;BME280;6053;51.382;6.768;2024-03-23T02:45:42;100723.06;;;15.52;54.90
11987;BME280;6053;51.382;6.768;2024-03-23T02:48:12;100723.69;;;15.56;54.95
11987;BME280;6053;51.382;6.768;2024-03-23T02:50:45;100738.41;;;15.39;55.30
11987;BME280;6053;51.382;6.768;2024-03-23T02:53:15;100749.97;;;15.55;54.74
11987;BME280;6053;51.382;6.768;2024-03-23T02:55:45;100756.16;;;15.59;54.69
11987;BME280;6053;51.382;6.768;2024-03-23T02:58:15;100747.78;;;15.59;54.70
11987;BME280;6053;51.382;6.768;2024-03-23T03:00:44;100744.56;;;15.61;54.50
11987;BME280;6053;51.382;6.768;2024-03-23T03:03:11;100742.06;;;15.63;54.38
11987;BME280;6053;51.382;6.768;2024-03-23T03:05:38;100738.69;;;15.68;54.40
11987;BME280;6053;51.382;6.768;2024-03-23T03:08:06;100736.97;;;15.61;54.52
11987;BME280;6053;51.382;6.768;2024-03-23T03:10:33;100740.84;;;15.64;54.45
11987;BME280;6053;51.382;6.768;2024-03-23T03:13:03;100722.59;;;15.63;54.33
11987;BME280;6053;51.382;6.768;2024-03-23T03:15:36;100734.19;;;15.61;54.41
11987;BME280;6053;51.382;6.768;2024-03-23T03:18:04;100743.50;;;15.58;54.61
11987;BME280;6053;51.382;6.768;2024-03-23T03:20:31;100732.34;;;15.58;54.41
11987;BME280;6053;51.382;6.768;2024-03-23T03:23:01;100720.91;;;15.56;54.40
11987;BME280;6053;51.382;6.768;2024-03-23T03:25:34;100727.22;;;15.57;54.33
11987;BME280;6053;51.382;6.768;2024-03-23T03:28:01;100726.78;;;15.58;54.30
11987;BME280;6053;51.382;6.768;2024-03-23T03:30:36;100721.81;;;15.53;54.31
11987;BME280;6053;51.382;6.768;2024-03-23T03:33:03;100718.13;;;15.56;54.25
11987;BME280;6053;51.382;6.768;2024-03-23T03:35:36;100721.50;;;15.60;54.10
11987;BME280;6053;51.382;6.768;2024-03-23T03:38:07;100734.66;;;15.60;54.15
11987;BME280;6053;51.382;6.768;2024-03-23T03:40:33;100733.44;;;15.61;54.08
11987;BME280;6053;51.382;6.768;2024-03-23T03:43:06;100718.88;;;15.57;54.09
11987;BME280;6053;51.382;6.768;2024-03-23T03:45:37;100728.78;;;15.49;54.42
11987;BME280;6053;51.382;6.768;2024-03-23T03:48:10;100726.47;;;15.47;54.48
11987;BME280;6053;51.382;6.768;2024-03-23T03:50:38;100726.16;;;15.45;54.45
11987;BME280;6053;51.382;6.768;2024-03-23T03:53:11;100733.91;;;15.41;54.43
11987;BME280;6053;51.382;6.768;2024-03-23T03:55:38;100729.91;;;15.42;54.54
11987;BME280;6053;51.382;6.768;2024-03-23T03:58:11;100730.66;;;15.34;54.75
11987;BME280;6053;51.382;6.768;2024-03-23T04:00:41;100732.03;;;15.38;54.17
11987;BME280;6053;51.382;6.768;2024-03-23T04:03:14;100726.16;;;15.10;55.30
11987;BME280;6053;51.382;6.768;2024-03-23T04:05:41;100724.94;;;15.20;55.13
11987;BME280;6053;51.382;6.768;2024-03-23T04:08:13;100716.88;;;14.86;56.14
11987;BME280;6053;51.382;6.768;2024-03-23T04:10:47;100721.22;;;15.05;54.30
11987;BME280;6053;51.382;6.768;2024-03-23T04:13:13;100724.31;;;15.07;55.19
11987;BME280;6053;51.382;6.768;2024-03-23T04:15:44;100726.09;;;14.65;56.64
11987;BME280;6053;51.382;6.768;2024-03-23T04:18:14;100717.81;;;15.10;55.52
11987;BME280;6053;51.382;6.768;2024-03-23T04:20:44;100722.44;;;14.86;54.85
11987;BME280;6053;51.382;6.768;2024-03-23T04:23:12;100727.78;;;14.14;53.05
11987;BME280;6053;51.382;6.768;2024-03-23T04:25:39;100722.44;;;11.96;62.97
11987;BME280;6053;51.382;6.768;2024-03-23T04:28:06;100717.25;;;12.22;62.30
11987;BME280;6053;51.382;6.768;2024-03-23T04:30:36;100710.50;;;14.10;58.84
11987;BME280;6053;51.382;6.768;2024-03-23T04:33:04;100708.41;;;14.32;56.74
11987;BME280;6053;51.382;6.768;2024-03-23T04:35:31;100705.81;;;14.47;57.14
11987;BME280;6053;51.382;6.768;2024-03-23T04:37:58;100704.84;;;14.98;55.60
11987;BME280;6053;51.382;6.768;2024-03-23T04:40:25;100714.00;;;14.50;56.04
11987;BME280;6053;51.382;6.768;2024-03-23T04:42:52;100714.16;;;14.47;55.15
11987;BME280;6053;51.382;6.768;2024-03-23T04:45:22;100708.53;;;14.77;56.18
11987;BME280;6053;51.382;6.768;2024-03-23T04:47:52;100711.53;;;14.34;57.02
11987;BME280;6053;51.382;6.768;2024-03-23T04:50:28;100711.09;;;14.45;57.12
11987;BME280;6053;51.382;6.768;2024-03-23T04:52:55;100706.41;;;12.74;58.03
11987;BME280;6053;51.382;6.768;2024-03-23T04:55:21;100714.72;;;14.33;57.85
11987;BME280;6053;51.382;6.768;2024-03-23T04:57:49;100703.16;;;13.95;58.48
11987;BME280;6053;51.382;6.768;2024-03-23T05:00:16;100704.44;;;13.30;60.95
11987;BME280;6053;51.382;6.768;2024-03-23T05:02:47;100703.50;;;14.06;58.60
11987;BME280;6053;51.382;6.768;2024-03-23T05:05:17;100697.56;;;14.82;55.94
11987;BME280;6053;51.382;6.768;2024-03-23T05:07:48;100712.16;;;14.08;57.84
11987;BME280;6053;51.382;6.768;2024-03-23T05:10:18;100708.66;;;14.64;56.63
11987;BME280;6053;51.382;6.768;2024-03-23T05:12:48;100712.44;;;13.28;59.81
11987;BME280;6053;51.382;6.768;2024-03-23T05:15:14;100725.22;;;13.98;56.82
11987;BME280;6053;51.382;6.768;2024-03-23T05:17:45;100717.34;;;14.27;57.41
11987;BME280;6053;51.382;6.768;2024-03-23T05:20:21;100723.69;;;14.06;57.82
11987;BME280;6053;51.382;6.768;2024-03-23T05:22:49;100720.44;;;12.33;62.06
11987;BME280;6053;51.382;6.768;2024-03-23T05:25:17;100717.25;;;12.81;59.05
11987;BME280;6053;51.382;6.768;2024-03-23T05:27:47;100728.47;;;14.27;57.68
11987;BME280;6053;51.382;6.768;2024-03-23T05:30:16;100730.41;;;12.43;57.41
11987;BME280;6053;51.382;6.768;2024-03-23T05:32:46;100725.88;;;13.81;58.62
11987;BME280;6053;51.382;6.768;2024-03-23T05:35:13;100726.75;;;14.21;54.72
11987;BME280;6053;51.382;6.768;2024-03-23T05:37:40;100723.09;;;14.42;57.02
11987;BME280;6053;51.382;6.768;2024-03-23T05:40:12;100726.59;;;14.72;55.85
11987;BME280;6053;51.382;6.768;2024-03-23T05:42:47;100722.00;;;14.00;56.36
11987;BME280;6053;51.382;6.768;2024-03-23T05:45:14;100734.59;;;13.62;59.55
11987;BME280;6053;51.382;6.768;2024-03-23T05:47:44;100733.38;;;13.93;58.42
11987;BME280;6053;51.382;6.768;2024-03-23T05:50:11;100729.03;;;13.92;56.39
11987;BME280;6053;51.382;6.768;2024-03-23T05:52:41;100730.03;;;13.12;59.65
11987;BME280;6053;51.382;6.768;2024-03-23T05:55:11;100732.16;;;13.94;58.56
11987;BME280;6053;51.382;6.768;2024-03-23T05:57:38;100727.06;;;14.01;56.90
11987;BME280;6053;51.382;6.768;2024-03-23T06:00:07;100727.59;;;12.68;60.41
11987;BME280;6053;51.382;6.768;2024-03-23T06:02:37;100729.34;;;13.42;60.19
11987;BME280;6053;51.382;6.768;2024-03-23T06:05:04;100732.00;;;13.46;59.56
11987;BME280;6053;51.382;6.768;2024-03-23T06:07:31;100744.66;;;13.13;58.98
11987;BME280;6053;51.382;6.768;2024-03-23T06:09:58;100737.91;;;12.55;61.31
11987;BME280;6053;51.382;6.768;2024-03-23T06:12:25;100746.03;;;11.88;64.20
11987;BME280;6053;51.382;6.768;2024-03-23T06:14:52;100752.47;;;13.05;59.43
11987;BME280;6053;51.382;6.768;2024-03-23T06:17:19;100747.22;;;11.74;63.85
11987;BME280;6053;51.382;6.768;2024-03-23T06:19:46;100748.13;;;10.83;67.70
11987;BME280;6053;51.382;6.768;2024-03-23T06:22:13;100748.66;;;13.12;61.64
11987;BME280;6053;51.382;6.768;2024-03-23T06:24:40;100752.88;;;11.83;61.18
11987;BME280;6053;51.382;6.768;2024-03-23T06:27:10;100752.75;;;11.46;63.74
11987;BME280;6053;51.382;6.768;2024-03-23T06:29:41;100745.91;;;12.53;57.36
11987;BME280;6053;51.382;6.768;2024-03-23T06:32:08;100746.00;;;10.90;64.67
11987;BME280;6053;51.382;6.768;2024-03-23T06:34:40;100744.56;;;11.96;64.56
11987;BME280;6053;51.382;6.768;2024-03-23T06:37:07;100739.94;;;12.18;64.55
11987;BME280;6053;51.382;6.768;2024-03-23T06:39:39;100734.63;;;12.11;59.03
11987;BME280;6053;51.382;6.768;2024-03-23T06:42:09;100739.09;;;12.92;58.17
11987;BME280;6053;51.382;6.768;2024-03-23T06:44:44;100747.94;;;13.33;59.96
11987;BME280;6053;51.382;6.768;2024-03-23T06:47:15;100748.00;;;12.74;62.43
11987;BME280;6053;51.382;6.768;2024-03-23T06:49:41;100740.31;;;12.78;58.54
11987;BME280;6053;51.382;6.768;2024-03-23T06:52:08;100756.69;;;13.74;57.93
11987;BME280;6053;51.382;6.768;2024-03-23T06:54:35;100754.78;;;13.62;58.01
11987;BME280;6053;51.382;6.768;2024-03-23T06:57:09;100763.78;;;13.32;57.21
11987;BME280;6053;51.382;6.768;2024-03-23T06:59:36;100757.84;;;15.21;53.82
11987;BME280;6053;51.382;6.768;2024-03-23T07:02:07;100759.38;;;14.08;57.33
11987;BME280;6053;51.382;6.768;2024-03-23T07:04:37;100751.81;;;14.39;56.67
11987;BME280;6053;51.382;6.768;2024-03-23T07:07:05;100754.38;;;14.72;53.26
11987;BME280;6053;51.382;6.768;2024-03-23T07:09:35;100753.97;;;15.72;51.32
11987;BME280;6053;51.382;6.768;2024-03-23T07:12:11;100758.22;;;14.66;51.66
11987;BME280;6053;51.382;6.768;2024-03-23T07:14:38;100757.34;;;14.78;55.47
11987;BME280;6053;51.382;6.768;2024-03-23T07:17:06;100761.00;;;16.09;50.22
11987;BME280;6053;51.382;6.768;2024-03-23T07:19:32;100759.06;;;15.20;51.82
11987;BME280;6053;51.382;6.768;2024-03-23T07:21:59;100744.41;;;15.64;52.73
11987;BME280;6053;51.382;6.768;2024-03-23T07:24:26;100749.31;;;16.37;50.12
11987;BME280;6053;51.382;6.768;2024-03-23T07:26:53;100750.06;;;14.80;54.26
11987;BME280;6053;51.382;6.768;2024-03-23T07:29:23;100759.94;;;14.03;56.50
11987;BME280;6053;51.382;6.768;2024-03-23T07:31:50;100760.19;;;14.56;52.86
11987;BME280;6053;51.382;6.768;2024-03-23T07:34:18;100741.59;;;15.11;51.40
11987;BME280;6053;51.382;6.768;2024-03-23T07:36:48;100753.69;;;16.20;51.21
11987;BME280;6053;51.382;6.768;2024-03-23T07:39:15;100750.44;;;16.63;47.85
11987;BME280;6053;51.382;6.768;2024-03-23T07:41:44;100758.06;;;14.69;51.22
11987;BME280;6053;51.382;6.768;2024-03-23T07:44:14;100757.75;;;13.98;52.26
11987;BME280;6053;51.382;6.768;2024-03-23T07:46:47;100764.25;;;14.04;54.47
11987;BME280;6053;51.382;6.768;2024-03-23T07:49:13;100761.06;;;15.91;49.78
11987;BME280;6053;51.382;6.768;2024-03-23T07:51:44;100759.97;;;15.89;50.49
11987;BME280;6053;51.382;6.768;2024-03-23T07:54:11;100759.78;;;16.01;50.29
11987;BME280;6053;51.382;6.768;2024-03-23T07:56:38;100765.78;;;14.65;54.71
11987;BME280;6053;51.382;6.768;2024-03-23T07:59:07;100766.53;;;13.11;53.67
11987;BME280;6053;51.382;6.768;2024-03-23T08:01:37;100765.41;;;15.03;53.98
11987;BME280;6053;51.382;6.768;2024-03-23T08:04:04;100756.53;;;14.59;50.74
11987;BME280;6053;51.382;6.768;2024-03-23T08:06:35;100769.25;;;11.78;58.27
11987;BME280;6053;51.382;6.768;2024-03-23T08:09:16;100780.31;;;13.36;59.79
11987;BME280;6053;51.382;6.768;2024-03-23T08:11:45;100770.22;;;11.43;62.00
11987;BME280;6053;51.382;6.768;2024-03-23T08:14:16;100771.97;;;10.93;61.71
11987;BME280;6053;51.382;6.768;2024-03-23T08:16:43;100768.28;;;12.46;59.38
11987;BME280;6053;51.382;6.768;2024-03-23T08:19:15;100777.41;;;11.69;60.04
11987;BME280;6053;51.382;6.768;2024-03-23T08:21:44;100771.22;;;13.35;60.42
11987;BME280;6053;51.382;6.768;2024-03-23T08:24:11;100763.34;;;13.00;59.21
11987;BME280;6053;51.382;6.768;2024-03-23T08:26:39;100755.00;;;13.34;59.25
11987;BME280;6053;51.382;6.768;2024-03-23T08:29:09;100766.06;;;11.51;65.31
11987;BME280;6053;51.382;6.768;2024-03-23T08:31:38;100782.13;;;10.32;63.75
11987;BME280;6053;51.382;6.768;2024-03-23T08:34:08;100805.75;;;8.98;68.05
11987;BME280;6053;51.382;6.768;2024-03-23T08:36:35;100801.97;;;9.53;72.91
11987;BME280;6053;51.382;6.768;2024-03-23T08:39:02;100789.13;;;10.21;65.68
11987;BME280;6053;51.382;6.768;2024-03-23T08:41:34;100792.22;;;9.68;68.83
11987;BME280;6053;51.382;6.768;2024-03-23T08:44:04;100784.50;;;9.98;66.64
11987;BME280;6053;51.382;6.768;2024-03-23T08:46:31;100774.94;;;12.12;63.44
11987;BME280;6053;51.382;6.768;2024-03-23T08:48:58;100785.38;;;13.37;59.34
11987;BME280;6053;51.382;6.768;2024-03-23T08:51:26;100783.34;;;12.20;58.77
11987;BME280;6053;51.382;6.768;2024-03-23T08:53:56;100791.47;;;12.40;61.06
11987;BME280;6053;51.382;6.768;2024-03-23T08:56:26;100784.56;;;11.38;64.88
11987;BME280;6053;51.382;6.768;2024-03-23T08:58:53;100788.59;;;11.78;57.39
11987;BME280;6053;51.382;6.768;2024-03-23T09:01:20;100783.78;;;12.56;61.49
11987;BME280;6053;51.382;6.768;2024-03-23T09:03:50;100784.53;;;12.82;61.13
11987;BME280;6053;51.382;6.768;2024-03-23T09:06:17;100790.69;;;13.23;58.76
11987;BME280;6053;51.382;6.768;2024-03-23T09:08:46;100785.00;;;12.55;57.04
11987;BME280;6053;51.382;6.768;2024-03-23T09:11:16;100782.84;;;13.09;56.67
11987;BME280;6053;51.382;6.768;2024-03-23T09:13:46;100784.59;;;12.57;55.20
11987;BME280;6053;51.382;6.768;2024-03-23T09:16:16;100794.75;;;13.52;55.35
11987;BME280;6053;51.382;6.768;2024-03-23T09:18:43;100792.22;;;12.16;58.47
11987;BME280;6053;51.382;6.768;2024-03-23T09:21:14;100788.50;;;13.05;55.46
11987;BME280;6053;51.382;6.768;2024-03-23T09:23:43;100785.03;;;13.14;55.61
11987;BME280;6053;51.382;6.768;2024-03-23T09:26:10;100787.16;;;14.38;57.07
11987;BME280;6053;51.382;6.768;2024-03-23T09:28:40;100783.66;;;11.98;56.76
11987;BME280;6053;51.382;6.768;2024-03-23T09:31:08;100782.19;;;13.60;53.73
11987;BME280;6053;51.382;6.768;2024-03-23T09:33:36;100782.88;;;12.84;55.50
11987;BME280;6053;51.382;6.768;2024-03-23T09:36:05;100789.59;;;13.20;57.48
11987;BME280;6053;51.382;6.768;2024-03-23T09:38:38;100782.19;;;14.33;57.35
11987;BME280;6053;51.382;6.768;2024-03-23T09:41:11;100778.38;;;13.24;54.08
11987;BME280;6053;51.382;6.768;2024-03-23T09:43:44;100782.19;;;13.05;52.02
11987;BME280;6053;51.382;6.768;2024-03-23T09:46:14;100784.25;;;12.67;55.57
11987;BME280;6053;51.382;6.768;2024-03-23T09:48:43;100774.72;;;12.18;54.79
11987;BME280;6053;51.382;6.768;2024-03-23T09:51:13;100767.91;;;12.94;51.17
11987;BME280;6053;51.382;6.768;2024-03-23T09:53:40;100765.72;;;12.02;56.21
11987;BME280;6053;51.382;6.768;2024-03-23T09:56:11;100761.06;;;14.36;54.23
11987;BME280;6053;51.382;6.768;2024-03-23T09:58:38;100761.22;;;13.38;49.48
11987;BME280;6053;51.382;6.768;2024-03-23T10:01:05;100762.34;;;13.92;49.45
11987;BME280;6053;51.382;6.768;2024-03-23T10:03:32;100751.66;;;13.60;48.87
11987;BME280;6053;51.382;6.768;2024-03-23T10:06:03;100743.91;;;13.34;49.21
11987;BME280;6053;51.382;6.768;2024-03-23T10:08:31;100734.03;;;14.27;48.11
11987;BME280;6053;51.382;6.768;2024-03-23T10:11:14;100738.78;;;14.75;49.85
11987;BME280;6053;51.382;6.768;2024-03-23T10:13:43;100736.81;;;12.53;51.28
11987;BME280;6053;51.382;6.768;2024-03-23T10:16:10;100746.63;;;13.25;53.51
11987;BME280;6053;51.382;6.768;2024-03-23T10:18:38;100747.78;;;12.69;55.78
11987;BME280;6053;51.382;6.768;2024-03-23T10:21:09;100738.38;;;12.41;59.52
11987;BME280;6053;51.382;6.768;2024-03-23T10:23:39;100741.72;;;12.12;54.52
11987;BME280;6053;51.382;6.768;2024-03-23T10:26:20;100746.97;;;10.68;57.43
11987;BME280;6053;51.382;6.768;2024-03-23T10:29:05;100754.13;;;11.26;62.19
11987;BME280;6053;51.382;6.768;2024-03-23T10:31:37;100767.34;;;11.62;62.63
11987;BME280;6053;51.382;6.768;2024-03-23T10:34:07;100775.53;;;10.93;56.51
11987;BME280;6053;51.382;6.768;2024-03-23T10:36:38;100812.63;;;11.08;62.24
11987;BME280;6053;51.382;6.768;2024-03-23T10:39:08;100831.06;;;10.32;58.26
11987;BME280;6053;51.382;6.768;2024-03-23T10:41:36;100816.63;;;10.91;60.32
11987;BME280;6053;51.382;6.768;2024-03-23T10:44:11;100817.81;;;10.90;60.82
11987;BME280;6053;51.382;6.768;2024-03-23T10:46:38;100804.16;;;11.59;62.93
11987;BME280;6053;51.382;6.768;2024-03-23T10:49:05;100807.72;;;11.72;56.52
11987;BME280;6053;51.382;6.768;2024-03-23T10:51:33;100807.59;;;12.04;59.27
11987;BME280;6053;51.382;6.768;2024-03-23T10:54:01;100804.66;;;11.10;58.98
11987;BME280;6053;51.382;6.768;2024-03-23T10:56:34;100790.97;;;13.80;59.10
11987;BME280;6053;51.382;6.768;2024-03-23T10:59:03;100791.66;;;12.70;60.47
11987;BME280;6053;51.382;6.768;2024-03-23T11:01:54;100791.81;;;11.76;57.88
11987;BME280;6053;51.382;6.768;2024-03-23T11:04:40;100790.19;;;10.74;59.78
11987;BME280;6053;51.382;6.768;2024-03-23T11:07:29;100784.81;;;12.50;61.73
11987;BME280;6053;51.382;6.768;2024-03-23T11:09:57;100776.13;;;12.73;61.97
11987;BME280;6053;51.382;6.768;2024-03-23T11:12:31;100769.81;;;12.97;59.04
11987;BME280;6053;51.382;6.768;2024-03-23T11:15:12;100768.81;;;13.89;56.68
11987;BME280;6053;51.382;6.768;2024-03-23T11:17:39;100760.41;;;14.23;52.47
11987;BME280;6053;51.382;6.768;2024-03-23T11:20:09;100767.63;;;13.69;51.61
11987;BME280;6053;51.382;6.768;2024-03-23T11:22:42;100755.69;;;14.50;56.18
11987;BME280;6053;51.382;6.768;2024-03-23T11:25:17;100761.00;;;14.27;55.36
11987;BME280;6053;51.382;6.768;2024-03-23T11:27:45;100758.69;;;14.25;52.01
11987;BME280;6053;51.382;6.768;2024-03-23T11:30:14;100758.34;;;13.93;52.67
11987;BME280;6053;51.382;6.768;2024-03-23T11:32:43;100760.50;;;13.68;55.51
11987;BME280;6053;51.382;6.768;2024-03-23T11:35:27;100751.16;;;12.98;51.61
11987;BME280;6053;51.382;6.768;2024-03-23T11:38:06;100740.13;;;13.62;53.35
11987;BME280;6053;51.382;6.768;2024-03-23T11:40:33;100752.59;;;14.09;52.24
11987;BME280;6053;51.382;6.768;2024-03-23T11:43:06;100759.66;;;11.26;50.46
11987;BME280;6053;51.382;6.768;2024-03-23T11:45:37;100751.44;;;10.78;54.62
11987;BME280;6053;51.382;6.768;2024-03-23T11:48:07;100764.72;;;11.84;60.92
11987;BME280;6053;51.382;6.768;2024-03-23T11:50:37;100790.50;;;10.29;56.16
11987;BME280;6053;51.382;6.768;2024-03-23T11:53:16;100772.41;;;10.44;59.85
11987;BME280;6053;51.382;6.768;2024-03-23T11:55:48;100771.19;;;11.37;57.09
11987;BME280;6053;51.382;6.768;2024-03-23T11:58:18;100769.66;;;8.92;58.02
11987;BME280;6053;51.382;6.768;2024-03-23T12:00:57;100775.47;;;9.98;67.89
11987;BME280;6053;51.382;6.768;2024-03-23T12:03:25;100771.47;;;10.50;65.49
11987;BME280;6053;51.382;6.768;2024-03-23T12:05:56;100770.63;;;9.24;59.87
11987;BME280;6053;51.382;6.768;2024-03-23T12:08:24;100779.16;;;10.43;59.26
11987;BME280;6053;51.382;6.768;2024-03-23T12:10:52;100772.22;;;10.98;64.96
11987;BME280;6053;51.382;6.768;2024-03-23T12:13:21;100758.75;;;11.98;55.19
11987;BME280;6053;51.382;6.768;2024-03-23T12:15:50;100758.38;;;12.95;60.54
11987;BME280;6053;51.382;6.768;2024-03-23T12:18:24;100746.56;;;11.95;56.89
11987;BME280;6053;51.382;6.768;2024-03-23T12:20:57;100757.00;;;13.97;57.10
11987;BME280;6053;51.382;6.768;2024-03-23T12:23:24;100747.25;;;14.23;53.62
11987;BME280;6053;51.382;6.768;2024-03-23T12:25:54;100747.78;;;13.79;51.76
11987;BME280;6053;51.382;6.768;2024-03-23T12:28:21;100734.38;;;14.08;55.60
11987;BME280;6053;51.382;6.768;2024-03-23T12:30:51;100737.78;;;13.81;55.13
11987;BME280;6053;51.382;6.768;2024-03-23T12:33:19;100745.19;;;14.45;52.63
11987;BME280;6053;51.382;6.768;2024-03-23T12:35:49;100729.41;;;15.35;53.51
11987;BME280;6053;51.382;6.768;2024-03-23T12:38:16;100725.72;;;12.65;49.43
11987;BME280;6053;51.382;6.768;2024-03-23T12:40:46;100734.66;;;12.94;50.63
11987;BME280;6053;51.382;6.768;2024-03-23T12:43:14;100764.06;;;11.51;61.28
11987;BME280;6053;51.382;6.768;2024-03-23T12:45:45;100766.78;;;9.96;60.92
11987;BME280;6053;51.382;6.768;2024-03-23T12:48:16;100793.56;;;7.97;67.75
11987;BME280;6053;51.382;6.768;2024-03-23T12:50:43;100795.66;;;7.53;68.44
11987;BME280;6053;51.382;6.768;2024-03-23T12:53:10;100792.34;;;10.35;67.30
11987;BME280;6053;51.382;6.768;2024-03-23T12:55:37;100762.00;;;12.09;63.72
11987;BME280;6053;51.382;6.768;2024-03-23T12:58:04;100745.94;;;14.37;54.30
11987;BME280;6053;51.382;6.768;2024-03-23T13:00:36;100754.78;;;14.53;56.77
11987;BME280;6053;51.382;6.768;2024-03-23T13:03:14;100750.25;;;13.56;56.27
11987;BME280;6053;51.382;6.768;2024-03-23T13:05:42;100745.91;;;14.76;55.94
11987;BME280;6053;51.382;6.768;2024-03-23T13:08:09;100746.56;;;11.83;62.85
11987;BME280;6053;51.382;6.768;2024-03-23T13:10:36;100738.16;;;13.07;56.58
11987;BME280;6053;51.382;6.768;2024-03-23T13:13:03;100730.53;;;12.27;62.35
11987;BME280;6053;51.382;6.768;2024-03-23T13:15:30;100729.59;;;14.48;57.20
11987;BME280;6053;51.382;6.768;2024-03-23T13:17:57;100732.66;;;12.11;59.25
11987;BME280;6053;51.382;6.768;2024-03-23T13:20:26;100752.63;;;11.37;64.26
11987;BME280;6053;51.382;6.768;2024-03-23T13:23:02;100747.78;;;9.82;59.32
11987;BME280;6053;51.382;6.768;2024-03-23T13:25:29;100737.72;;;10.74;64.12
11987;BME280;6053;51.382;6.768;2024-03-23T13:27:57;100741.59;;;10.61;66.18
11987;BME280;6053;51.382;6.768;2024-03-23T13:30:24;100734.78;;;11.38;59.60
11987;BME280;6053;51.382;6.768;2024-03-23T13:32:51;100728.09;;;12.17;56.28
11987;BME280;6053;51.382;6.768;2024-03-23T13:35:21;100725.06;;;11.62;64.68
11987;BME280;6053;51.382;6.768;2024-03-23T13:37:49;100720.06;;;12.69;50.70
11987;BME280;6053;51.382;6.768;2024-03-23T13:40:16;100723.31;;;12.30;55.57
11987;BME280;6053;51.382;6.768;2024-03-23T13:42:46;100725.59;;;12.81;52.17
11987;BME280;6053;51.382;6.768;2024-03-23T13:45:13;100724.75;;;12.59;56.17
11987;BME280;6053;51.382;6.768;2024-03-23T13:47:49;100724.91;;;13.45;59.33
11987;BME280;6053;51.382;6.768;2024-03-23T13:50:19;100724.81;;;11.28;54.43
11987;BME280;6053;51.382;6.768;2024-03-23T13:52:46;100728.78;;;11.55;59.41
11987;BME280;6053;51.382;6.768;2024-03-23T13:55:13;100721.13;;;12.37;53.90
11987;BME280;6053;51.382;6.768;2024-03-23T13:57:41;100714.38;;;10.91;53.83
11987;BME280;6053;51.382;6.768;2024-03-23T14:00:09;100718.22;;;12.53;60.31
11987;BME280;6053;51.382;6.768;2024-03-23T14:02:36;100722.50;;;11.55;57.74
11987;BME280;6053;51.382;6.768;2024-03-23T14:05:04;100718.44;;;12.46;54.87